sensor_id;sensor_type;location;lat;lon;timestamp;pressure;altitude;pressure_sealevel;temperature;humidity
70256;BME280;57669;52.624;-1.688;2022-12-01T00:01:03;102300.99;;;6.92;53.88
70256;BME280;57669;52.624;-1.688;2022-12-01T00:03:29;102309.97;;;6.96;53.41
70256;BME280;57669;52.624;-1.688;2022-12-01T00:05:58;102317.43;;;6.97;53.16
70256;BME280;57669;52.624;-1.688;2022-12-01T00:08:20;102318.66;;;7.75;51.68
70256;BME280;57669;52.624;-1.688;2022-12-01T00:10:45;102320.72;;;7.16;52.94
70256;BME280;57669;52.624;-1.688;2022-12-01T00:13:10;102321.96;;;7.70;51.83
70256;BME280;57669;52.624;-1.688;2022-12-01T00:15:36;102326.07;;;7.05;52.59
70256;BME280;57669;52.624;-1.688;2022-12-01T00:18:03;102332.55;;;7.39;52.01
70256;BME280;57669;52.624;-1.688;2022-12-01T00:20:27;102337.59;;;7.49;52.04
70256;BME280;57669;52.624;-1.688;2022-12-01T00:22:53;102342.90;;;7.30;52.42
70256;BME280;57669;52.624;-1.688;2022-12-01T00:25:19;102350.12;;;7.49;52.14
70256;BME280;57669;52.624;-1.688;2022-12-01T00:27:46;102353.09;;;7.27;52.16
70256;BME280;57669;52.624;-1.688;2022-12-01T00:30:11;102357.77;;;7.87;51.10
70256;BME280;57669;52.624;-1.688;2022-12-01T00:32:35;102357.88;;;8.13;50.46
70256;BME280;57669;52.624;-1.688;2022-12-01T00:35:00;102349.33;;;7.88;51.37
70256;BME280;57669;52.624;-1.688;2022-12-01T00:37:26;102358.82;;;8.11;50.58
70256;BME280;57669;52.624;-1.688;2022-12-01T00:39:51;102354.51;;;8.04;50.34
70256;BME280;57669;52.624;-1.688;2022-12-01T00:42:16;102356.64;;;7.83;50.80
70256;BME280;57669;52.624;-1.688;2022-12-01T00:44:41;102349.80;;;8.00;50.43
70256;BME280;57669;52.624;-1.688;2022-12-01T00:47:06;102346.21;;;8.56;49.99
70256;BME280;57669;52.624;-1.688;2022-12-01T00:49:31;102341.73;;;8.12;50.08
70256;BME280;57669;52.624;-1.688;2022-12-01T00:51:57;102341.02;;;7.93;50.91
70256;BME280;57669;52.624;-1.688;2022-12-01T00:54:22;102339.06;;;7.74;51.30
70256;BME280;57669;52.624;-1.688;2022-12-01T00:56:47;102342.74;;;8.12;50.77
70256;BME280;57669;52.624;-1.688;2022-12-01T00:59:13;102344.62;;;7.91;51.20
70256;BME280;57669;52.624;-1.688;2022-12-01T01:01:38;102343.29;;;7.72;51.50
70256;BME280;57669;52.624;-1.688;2022-12-01T01:04:04;102350.29;;;7.22;51.54
70256;BME280;57669;52.624;-1.688;2022-12-01T01:06:29;102350.90;;;7.99;51.19
70256;BME280;57669;52.624;-1.688;2022-12-01T01:08:54;102347.96;;;7.46;52.32
70256;BME280;57669;52.624;-1.688;2022-12-01T01:11:20;102343.61;;;7.42;52.31
70256;BME280;57669;52.624;-1.688;2022-12-01T01:13:46;102345.57;;;8.13;50.92
70256;BME280;57669;52.624;-1.688;2022-12-01T01:16:13;102341.97;;;7.59;51.37
70256;BME280;57669;52.624;-1.688;2022-12-01T01:18:37;102336.92;;;7.62;51.26
70256;BME280;57669;52.624;-1.688;2022-12-01T01:21:04;102334.59;;;7.89;50.74
70256;BME280;57669;52.624;-1.688;2022-12-01T01:23:27;102333.32;;;7.71;50.74
70256;BME280;57669;52.624;-1.688;2022-12-01T01:25:53;102331.18;;;7.55;51.10
70256;BME280;57669;52.624;-1.688;2022-12-01T01:28:18;102330.68;;;7.82;50.94
70256;BME280;57669;52.624;-1.688;2022-12-01T01:30:43;102322.76;;;7.94;50.39
70256;BME280;57669;52.624;-1.688;2022-12-01T01:33:09;102318.32;;;8.44;49.52
70256;BME280;57669;52.624;-1.688;2022-12-01T01:35:34;102315.51;;;8.33;50.23
70256;BME280;57669;52.624;-1.688;2022-12-01T01:38:03;102307.40;;;7.68;51.48
70256;BME280;57669;52.624;-1.688;2022-12-01T01:40:26;102313.78;;;8.05;50.79
70256;BME280;57669;52.624;-1.688;2022-12-01T01:42:51;102307.94;;;7.72;51.35
70256;BME280;57669;52.624;-1.688;2022-12-01T01:45:20;102298.39;;;7.51;51.83
70256;BME280;57669;52.624;-1.688;2022-12-01T01:47:42;102301.21;;;7.71;51.63
70256;BME280;57669;52.624;-1.688;2022-12-01T01:50:10;102298.06;;;7.16;52.51
70256;BME280;57669;52.624;-1.688;2022-12-01T01:52:33;102296.27;;;7.36;51.95
70256;BME280;57669;52.624;-1.688;2022-12-01T01:54:58;102297.82;;;7.34;52.59
70256;BME280;57669;52.624;-1.688;2022-12-01T01:57:28;102299.66;;;7.20;52.72
70256;BME280;57669;52.624;-1.688;2022-12-01T01:59:53;102302.27;;;7.50;52.40
70256;BME280;57669;52.624;-1.688;2022-12-01T02:02:14;102304.68;;;6.87;53.24
70256;BME280;57669;52.624;-1.688;2022-12-01T02:04:44;102302.04;;;6.42;54.47
70256;BME280;57669;52.624;-1.688;2022-12-01T02:07:06;102297.10;;;6.75;53.92
70256;BME280;57669;52.624;-1.688;2022-12-01T02:09:31;102291.51;;;6.94;53.78
70256;BME280;57669;52.624;-1.688;2022-12-01T02:12:05;102291.58;;;5.71;56.03
70256;BME280;57669;52.624;-1.688;2022-12-01T02:16:51;102295.57;;;6.10;56.24
70256;BME280;57669;52.624;-1.688;2022-12-01T02:19:29;102296.16;;;5.64;58.28
70256;BME280;57669;52.624;-1.688;2022-12-01T02:21:47;102302.49;;;5.89;56.64
70256;BME280;57669;52.624;-1.688;2022-12-01T02:26:36;102301.87;;;6.24;55.94
70256;BME280;57669;52.624;-1.688;2022-12-01T02:29:08;102304.18;;;6.13;55.92
70256;BME280;57669;52.624;-1.688;2022-12-01T02:31:23;102311.86;;;6.39;55.10
70256;BME280;57669;52.624;-1.688;2022-12-01T02:33:51;102317.80;;;6.19;56.16
70256;BME280;57669;52.624;-1.688;2022-12-01T02:36:16;102314.80;;;6.15;55.34
70256;BME280;57669;52.624;-1.688;2022-12-01T02:38:39;102323.29;;;6.52;54.68
70256;BME280;57669;52.624;-1.688;2022-12-01T02:41:07;102323.96;;;6.43;55.37
70256;BME280;57669;52.624;-1.688;2022-12-01T02:43:31;102331.15;;;6.29;55.75
70256;BME280;57669;52.624;-1.688;2022-12-01T02:45:57;102333.73;;;6.49;54.80
70256;BME280;57669;52.624;-1.688;2022-12-01T02:48:23;102335.45;;;6.61;54.59
70256;BME280;57669;52.624;-1.688;2022-12-01T02:50:45;102336.48;;;6.48;54.88
70256;BME280;57669;52.624;-1.688;2022-12-01T02:53:12;102340.94;;;6.87;54.16
70256;BME280;57669;52.624;-1.688;2022-12-01T02:55:35;102343.65;;;6.62;54.77
70256;BME280;57669;52.624;-1.688;2022-12-01T02:58:00;102342.43;;;6.58;54.43
70256;BME280;57669;52.624;-1.688;2022-12-01T03:00:25;102340.00;;;7.22;53.42
70256;BME280;57669;52.624;-1.688;2022-12-01T03:03:02;102336.02;;;7.14;53.15
70256;BME280;57669;52.624;-1.688;2022-12-01T03:05:21;102334.63;;;7.59;52.73
70256;BME280;57669;52.624;-1.688;2022-12-01T03:07:50;102330.96;;;7.16;53.38
70256;BME280;57669;52.624;-1.688;2022-12-01T03:10:15;102338.13;;;6.70;53.46
70256;BME280;57669;52.624;-1.688;2022-12-01T03:12:37;102339.96;;;6.08;55.33
70256;BME280;57669;52.624;-1.688;2022-12-01T03:15:01;102337.83;;;6.39;55.81
70256;BME280;57669;52.624;-1.688;2022-12-01T03:17:27;102332.59;;;6.14;56.41
70256;BME280;57669;52.624;-1.688;2022-12-01T03:19:54;102325.83;;;5.93;57.18
70256;BME280;57669;52.624;-1.688;2022-12-01T03:22:19;102323.69;;;5.36;58.20
70256;BME280;57669;52.624;-1.688;2022-12-01T03:24:44;102328.66;;;5.82;57.38
70256;BME280;57669;52.624;-1.688;2022-12-01T03:27:07;102335.91;;;5.44;58.41
70256;BME280;57669;52.624;-1.688;2022-12-01T03:29:35;102335.99;;;5.23;58.60
70256;BME280;57669;52.624;-1.688;2022-12-01T03:32:01;102336.80;;;5.64;57.64
70256;BME280;57669;52.624;-1.688;2022-12-01T03:34:25;102337.50;;;5.74;57.12
70256;BME280;57669;52.624;-1.688;2022-12-01T03:36:51;102339.66;;;6.04;56.92
70256;BME280;57669;52.624;-1.688;2022-12-01T03:39:17;102343.16;;;5.33;57.63
70256;BME280;57669;52.624;-1.688;2022-12-01T03:41:41;102341.44;;;5.64;57.11
70256;BME280;57669;52.624;-1.688;2022-12-01T03:44:07;102336.51;;;5.79;56.54
70256;BME280;57669;52.624;-1.688;2022-12-01T03:46:35;102337.66;;;6.20;55.28
70256;BME280;57669;52.624;-1.688;2022-12-01T03:48:55;102337.27;;;6.36;55.01
70256;BME280;57669;52.624;-1.688;2022-12-01T03:51:27;102335.84;;;6.25;55.41
70256;BME280;57669;52.624;-1.688;2022-12-01T03:53:51;102341.11;;;6.69;54.35
70256;BME280;57669;52.624;-1.688;2022-12-01T03:56:13;102343.97;;;6.15;54.78
70256;BME280;57669;52.624;-1.688;2022-12-01T03:58:39;102343.97;;;6.67;54.27
70256;BME280;57669;52.624;-1.688;2022-12-01T04:01:03;102335.91;;;5.92;55.18
70256;BME280;57669;52.624;-1.688;2022-12-01T04:03:27;102348.76;;;6.54;54.32
70256;BME280;57669;52.624;-1.688;2022-12-01T04:05:52;102352.82;;;6.40;55.22
70256;BME280;57669;52.624;-1.688;2022-12-01T04:08:18;102350.58;;;5.93;55.02
70256;BME280;57669;52.624;-1.688;2022-12-01T04:10:44;102352.72;;;6.36;54.97
70256;BME280;57669;52.624;-1.688;2022-12-01T04:13:09;102354.62;;;6.32;54.45
70256;BME280;57669;52.624;-1.688;2022-12-01T04:15:34;102354.28;;;6.80;53.25
70256;BME280;57669;52.624;-1.688;2022-12-01T04:18:00;102358.51;;;7.09;54.01
70256;BME280;57669;52.624;-1.688;2022-12-01T04:20:26;102357.01;;;6.62;54.48
70256;BME280;57669;52.624;-1.688;2022-12-01T04:22:51;102357.64;;;6.27;54.71
70256;BME280;57669;52.624;-1.688;2022-12-01T04:25:16;102356.00;;;5.85;55.90
70256;BME280;57669;52.624;-1.688;2022-12-01T04:27:42;102352.00;;;5.89;56.02
70256;BME280;57669;52.624;-1.688;2022-12-01T04:30:08;102358.41;;;6.46;56.35
70256;BME280;57669;52.624;-1.688;2022-12-01T04:32:36;102365.36;;;6.57;54.67
70256;BME280;57669;52.624;-1.688;2022-12-01T04:34:59;102368.92;;;6.43;53.89
70256;BME280;57669;52.624;-1.688;2022-12-01T04:37:24;102360.84;;;6.49;53.93
70256;BME280;57669;52.624;-1.688;2022-12-01T04:39:50;102358.61;;;6.28;54.69
70256;BME280;57669;52.624;-1.688;2022-12-01T04:42:15;102364.56;;;6.09;54.68
70256;BME280;57669;52.624;-1.688;2022-12-01T04:44:40;102367.90;;;6.90;53.11
70256;BME280;57669;52.624;-1.688;2022-12-01T04:47:06;102366.91;;;7.17;52.40
70256;BME280;57669;52.624;-1.688;2022-12-01T04:49:32;102367.96;;;7.07;52.43
70256;BME280;57669;52.624;-1.688;2022-12-01T04:51:57;102369.70;;;6.38;53.56
70256;BME280;57669;52.624;-1.688;2022-12-01T04:54:23;102366.27;;;5.86;54.84
70256;BME280;57669;52.624;-1.688;2022-12-01T04:56:49;102367.69;;;6.61;53.37
70256;BME280;57669;52.624;-1.688;2022-12-01T04:59:14;102363.65;;;6.16;53.79
70256;BME280;57669;52.624;-1.688;2022-12-01T05:01:39;102357.73;;;6.78;52.98
70256;BME280;57669;52.624;-1.688;2022-12-01T05:04:05;102360.19;;;7.35;51.95
70256;BME280;57669;52.624;-1.688;2022-12-01T05:06:30;102354.36;;;6.62;53.21
70256;BME280;57669;52.624;-1.688;2022-12-01T05:08:57;102349.34;;;7.35;52.55
70256;BME280;57669;52.624;-1.688;2022-12-01T05:11:22;102341.91;;;6.42;53.49
70256;BME280;57669;52.624;-1.688;2022-12-01T05:13:48;102332.85;;;6.64;53.72
70256;BME280;57669;52.624;-1.688;2022-12-01T05:16:15;102331.75;;;5.49;56.34
70256;BME280;57669;52.624;-1.688;2022-12-01T05:18:38;102330.56;;;6.17;55.03
70256;BME280;57669;52.624;-1.688;2022-12-01T05:21:05;102325.23;;;6.70;54.12
70256;BME280;57669;52.624;-1.688;2022-12-01T05:23:31;102329.22;;;6.85;53.09
70256;BME280;57669;52.624;-1.688;2022-12-01T05:25:54;102335.25;;;6.68;52.88
70256;BME280;57669;52.624;-1.688;2022-12-01T05:28:20;102330.82;;;6.36;53.89
70256;BME280;57669;52.624;-1.688;2022-12-01T05:30:44;102328.66;;;5.17;55.75
70256;BME280;57669;52.624;-1.688;2022-12-01T05:33:10;102325.02;;;5.97;54.93
70256;BME280;57669;52.624;-1.688;2022-12-01T05:35:36;102330.28;;;5.87;55.69
70256;BME280;57669;52.624;-1.688;2022-12-01T05:38:01;102329.81;;;6.10;55.24
70256;BME280;57669;52.624;-1.688;2022-12-01T05:40:27;102326.62;;;5.96;55.26
70256;BME280;57669;52.624;-1.688;2022-12-01T05:42:53;102331.08;;;5.54;56.70
70256;BME280;57669;52.624;-1.688;2022-12-01T05:45:18;102334.07;;;5.74;56.38
70256;BME280;57669;52.624;-1.688;2022-12-01T05:47:44;102335.43;;;6.06;55.96
70256;BME280;57669;52.624;-1.688;2022-12-01T05:50:10;102333.98;;;5.76;55.83
70256;BME280;57669;52.624;-1.688;2022-12-01T05:52:35;102331.36;;;6.35;55.35
70256;BME280;57669;52.624;-1.688;2022-12-01T05:55:00;102332.75;;;5.36;57.15
70256;BME280;57669;52.624;-1.688;2022-12-01T05:57:25;102332.31;;;5.22;57.23
70256;BME280;57669;52.624;-1.688;2022-12-01T05:59:50;102336.91;;;4.59;58.89
70256;BME280;57669;52.624;-1.688;2022-12-01T06:02:16;102335.36;;;4.83;59.06
70256;BME280;57669;52.624;-1.688;2022-12-01T06:04:41;102329.66;;;5.39;57.95
70256;BME280;57669;52.624;-1.688;2022-12-01T06:07:07;102337.50;;;4.93;59.01
70256;BME280;57669;52.624;-1.688;2022-12-01T06:09:32;102332.97;;;5.87;55.89
70256;BME280;57669;52.624;-1.688;2022-12-01T06:11:58;102341.23;;;5.11;57.58
70256;BME280;57669;52.624;-1.688;2022-12-01T06:14:23;102345.53;;;5.32;56.79
70256;BME280;57669;52.624;-1.688;2022-12-01T06:16:49;102349.57;;;5.38;56.86
70256;BME280;57669;52.624;-1.688;2022-12-01T06:19:14;102351.01;;;6.43;55.29
70256;BME280;57669;52.624;-1.688;2022-12-01T06:21:39;102350.84;;;5.80;55.88
70256;BME280;57669;52.624;-1.688;2022-12-01T06:24:06;102356.15;;;5.27;56.92
70256;BME280;57669;52.624;-1.688;2022-12-01T06:26:31;102355.11;;;6.33;55.61
70256;BME280;57669;52.624;-1.688;2022-12-01T06:28:56;102368.34;;;4.67;58.46
70256;BME280;57669;52.624;-1.688;2022-12-01T06:31:21;102369.11;;;4.78;58.87
70256;BME280;57669;52.624;-1.688;2022-12-01T06:33:47;102370.32;;;5.73;56.96
70256;BME280;57669;52.624;-1.688;2022-12-01T06:36:13;102381.95;;;5.05;57.39
70256;BME280;57669;52.624;-1.688;2022-12-01T06:38:37;102377.74;;;5.13;57.75
70256;BME280;57669;52.624;-1.688;2022-12-01T06:41:04;102380.49;;;4.96;58.47
70256;BME280;57669;52.624;-1.688;2022-12-01T06:43:28;102380.12;;;5.00;58.51
70256;BME280;57669;52.624;-1.688;2022-12-01T06:45:54;102382.31;;;4.76;58.84
70256;BME280;57669;52.624;-1.688;2022-12-01T06:48:19;102377.06;;;5.09;58.30
70256;BME280;57669;52.624;-1.688;2022-12-01T06:50:44;102381.73;;;5.12;57.48
70256;BME280;57669;52.624;-1.688;2022-12-01T06:53:10;102383.86;;;4.94;57.70
70256;BME280;57669;52.624;-1.688;2022-12-01T06:55:36;102391.08;;;5.59;57.41
70256;BME280;57669;52.624;-1.688;2022-12-01T06:58:01;102390.39;;;5.24;57.09
70256;BME280;57669;52.624;-1.688;2022-12-01T07:00:26;102396.27;;;6.00;55.53
70256;BME280;57669;52.624;-1.688;2022-12-01T07:02:51;102397.19;;;6.29;55.03
70256;BME280;57669;52.624;-1.688;2022-12-01T07:05:17;102400.45;;;6.14;54.33
70256;BME280;57669;52.624;-1.688;2022-12-01T07:07:43;102399.17;;;6.54;53.74
70256;BME280;57669;52.624;-1.688;2022-12-01T07:10:10;102399.26;;;6.63;53.39
70256;BME280;57669;52.624;-1.688;2022-12-01T07:12:33;102400.84;;;6.22;53.70
70256;BME280;57669;52.624;-1.688;2022-12-01T07:14:59;102399.81;;;5.89;54.14
70256;BME280;57669;52.624;-1.688;2022-12-01T07:17:25;102403.68;;;6.07;54.92
70256;BME280;57669;52.624;-1.688;2022-12-01T07:19:50;102405.21;;;5.88;55.44
70256;BME280;57669;52.624;-1.688;2022-12-01T07:22:16;102400.14;;;6.29;54.87
70256;BME280;57669;52.624;-1.688;2022-12-01T07:24:41;102404.67;;;6.27;54.97
70256;BME280;57669;52.624;-1.688;2022-12-01T07:27:06;102408.54;;;6.32;54.68
70256;BME280;57669;52.624;-1.688;2022-12-01T07:29:32;102415.42;;;5.80;55.48
70256;BME280;57669;52.624;-1.688;2022-12-01T07:31:58;102417.64;;;6.23;54.78
70256;BME280;57669;52.624;-1.688;2022-12-01T07:34:23;102420.64;;;5.92;54.32
70256;BME280;57669;52.624;-1.688;2022-12-01T07:36:49;102425.25;;;6.24;53.85
70256;BME280;57669;52.624;-1.688;2022-12-01T07:39:15;102436.45;;;5.28;55.85
70256;BME280;57669;52.624;-1.688;2022-12-01T07:41:40;102434.59;;;5.20;56.95
70256;BME280;57669;52.624;-1.688;2022-12-01T07:44:05;102428.00;;;5.90;55.25
70256;BME280;57669;52.624;-1.688;2022-12-01T07:46:30;102429.18;;;5.71;54.88
70256;BME280;57669;52.624;-1.688;2022-12-01T07:48:56;102434.76;;;5.52;55.97
70256;BME280;57669;52.624;-1.688;2022-12-01T07:51:23;102430.50;;;6.33;54.64
70256;BME280;57669;52.624;-1.688;2022-12-01T07:53:48;102438.54;;;5.33;56.25
70256;BME280;57669;52.624;-1.688;2022-12-01T07:56:12;102432.65;;;5.96;55.47
70256;BME280;57669;52.624;-1.688;2022-12-01T07:58:37;102435.91;;;6.23;54.73
70256;BME280;57669;52.624;-1.688;2022-12-01T08:01:05;102434.62;;;6.04;55.62
70256;BME280;57669;52.624;-1.688;2022-12-01T08:03:29;102439.62;;;6.02;56.03
70256;BME280;57669;52.624;-1.688;2022-12-01T08:05:55;102437.95;;;6.18;55.14
70256;BME280;57669;52.624;-1.688;2022-12-01T08:08:19;102437.86;;;5.82;55.33
70256;BME280;57669;52.624;-1.688;2022-12-01T08:10:45;102442.64;;;6.10;55.29
70256;BME280;57669;52.624;-1.688;2022-12-01T08:13:11;102448.94;;;5.31;56.70
70256;BME280;57669;52.624;-1.688;2022-12-01T08:15:36;102447.06;;;5.65;56.82
70256;BME280;57669;52.624;-1.688;2022-12-01T08:18:02;102451.44;;;5.51;56.69
70256;BME280;57669;52.624;-1.688;2022-12-01T08:20:27;102451.47;;;5.09;57.05
70256;BME280;57669;52.624;-1.688;2022-12-01T08:22:52;102449.59;;;5.70;56.27
70256;BME280;57669;52.624;-1.688;2022-12-01T08:25:18;102458.24;;;5.33;56.62
70256;BME280;57669;52.624;-1.688;2022-12-01T08:27:43;102459.79;;;5.20;57.61
70256;BME280;57669;52.624;-1.688;2022-12-01T08:30:10;102462.09;;;4.58;59.20
70256;BME280;57669;52.624;-1.688;2022-12-01T08:32:34;102472.89;;;5.30;57.15
70256;BME280;57669;52.624;-1.688;2022-12-01T08:34:59;102473.61;;;5.62;56.19
70256;BME280;57669;52.624;-1.688;2022-12-01T08:37:24;102464.97;;;5.95;54.89
70256;BME280;57669;52.624;-1.688;2022-12-01T08:39:50;102468.33;;;6.45;53.38
70256;BME280;57669;52.624;-1.688;2022-12-01T08:42:15;102472.01;;;5.65;54.62
70256;BME280;57669;52.624;-1.688;2022-12-01T08:44:41;102471.46;;;6.10;54.67
70256;BME280;57669;52.624;-1.688;2022-12-01T08:47:06;102466.43;;;6.77;53.61
70256;BME280;57669;52.624;-1.688;2022-12-01T08:49:32;102468.18;;;5.91;54.43
70256;BME280;57669;52.624;-1.688;2022-12-01T08:51:58;102463.75;;;6.37;53.62
70256;BME280;57669;52.624;-1.688;2022-12-01T08:54:23;102464.17;;;6.73;53.89
70256;BME280;57669;52.624;-1.688;2022-12-01T08:56:49;102465.67;;;6.15;54.66
70256;BME280;57669;52.624;-1.688;2022-12-01T08:59:14;102471.08;;;5.32;56.55
70256;BME280;57669;52.624;-1.688;2022-12-01T09:01:40;102473.90;;;5.26;57.41
70256;BME280;57669;52.624;-1.688;2022-12-01T09:04:06;102467.21;;;6.05;55.26
70256;BME280;57669;52.624;-1.688;2022-12-01T09:06:33;102472.62;;;6.19;55.46
70256;BME280;57669;52.624;-1.688;2022-12-01T09:08:57;102470.85;;;5.86;55.40
70256;BME280;57669;52.624;-1.688;2022-12-01T09:11:21;102474.96;;;5.89;56.28
70256;BME280;57669;52.624;-1.688;2022-12-01T09:13:47;102468.96;;;6.15;55.58
70256;BME280;57669;52.624;-1.688;2022-12-01T09:16:14;102469.76;;;6.12;55.63
70256;BME280;57669;52.624;-1.688;2022-12-01T09:18:39;102466.27;;;6.30;55.64
70256;BME280;57669;52.624;-1.688;2022-12-01T09:21:09;102465.80;;;6.12;55.15
70256;BME280;57669;52.624;-1.688;2022-12-01T09:23:30;102471.31;;;5.96;55.29
70256;BME280;57669;52.624;-1.688;2022-12-01T09:25:59;102471.72;;;5.44;56.66
70256;BME280;57669;52.624;-1.688;2022-12-01T09:28:20;102468.82;;;5.65;56.58
70256;BME280;57669;52.624;-1.688;2022-12-01T09:30:46;102463.44;;;5.70;55.44
70256;BME280;57669;52.624;-1.688;2022-12-01T09:33:12;102461.80;;;6.32;55.15
70256;BME280;57669;52.624;-1.688;2022-12-01T09:35:37;102469.37;;;5.68;55.88
70256;BME280;57669;52.624;-1.688;2022-12-01T09:38:02;102456.83;;;6.05;55.21
70256;BME280;57669;52.624;-1.688;2022-12-01T09:40:33;102455.13;;;6.02;55.79
70256;BME280;57669;52.624;-1.688;2022-12-01T09:42:53;102449.85;;;6.63;54.44
70256;BME280;57669;52.624;-1.688;2022-12-01T09:45:24;102449.27;;;6.50;54.82
70256;BME280;57669;52.624;-1.688;2022-12-01T09:47:45;102458.04;;;6.15;55.79
70256;BME280;57669;52.624;-1.688;2022-12-01T09:50:13;102460.46;;;5.01;58.59
70256;BME280;57669;52.624;-1.688;2022-12-01T09:52:39;102463.76;;;5.16;58.19
70256;BME280;57669;52.624;-1.688;2022-12-01T09:55:01;102464.06;;;4.28;59.53
70256;BME280;57669;52.624;-1.688;2022-12-01T09:57:29;102467.65;;;5.89;57.01
70256;BME280;57669;52.624;-1.688;2022-12-01T09:59:52;102462.41;;;5.15;57.88
70256;BME280;57669;52.624;-1.688;2022-12-01T10:02:26;102459.97;;;5.08;57.78
70256;BME280;57669;52.624;-1.688;2022-12-01T10:04:45;102466.94;;;4.68;59.49
70256;BME280;57669;52.624;-1.688;2022-12-01T10:07:16;102460.73;;;5.01;59.19
70256;BME280;57669;52.624;-1.688;2022-12-01T10:09:38;102463.95;;;4.23;60.86
70256;BME280;57669;52.624;-1.688;2022-12-01T10:12:06;102458.63;;;4.45;60.32
70256;BME280;57669;52.624;-1.688;2022-12-01T10:14:28;102458.73;;;4.96;58.82
70256;BME280;57669;52.624;-1.688;2022-12-01T10:16:57;102454.85;;;4.93;59.72
70256;BME280;57669;52.624;-1.688;2022-12-01T10:19:20;102444.80;;;5.52;58.11
70256;BME280;57669;52.624;-1.688;2022-12-01T10:21:54;102444.00;;;4.94;59.07
70256;BME280;57669;52.624;-1.688;2022-12-01T10:24:18;102437.33;;;4.23;61.24
70256;BME280;57669;52.624;-1.688;2022-12-01T10:26:39;102441.69;;;4.41;61.17
70256;BME280;57669;52.624;-1.688;2022-12-01T10:29:09;102441.11;;;4.53;59.58
70256;BME280;57669;52.624;-1.688;2022-12-01T10:31:29;102444.70;;;5.50;57.97
70256;BME280;57669;52.624;-1.688;2022-12-01T10:33:57;102443.31;;;5.19;58.70
70256;BME280;57669;52.624;-1.688;2022-12-01T10:36:14;102437.30;;;4.52;59.93
70256;BME280;57669;52.624;-1.688;2022-12-01T10:38:39;102432.57;;;4.71;59.42
70256;BME280;57669;52.624;-1.688;2022-12-01T10:41:10;102431.94;;;5.54;57.94
70256;BME280;57669;52.624;-1.688;2022-12-01T10:43:36;102428.67;;;4.08;61.68
70256;BME280;57669;52.624;-1.688;2022-12-01T10:45:56;102435.60;;;4.85;59.56
70256;BME280;57669;52.624;-1.688;2022-12-01T10:48:22;102437.76;;;5.37;59.77
70256;BME280;57669;52.624;-1.688;2022-12-01T10:50:53;102441.06;;;5.01;60.46
70256;BME280;57669;52.624;-1.688;2022-12-01T10:55:39;102438.40;;;4.81;59.69
70256;BME280;57669;52.624;-1.688;2022-12-01T10:58:12;102440.76;;;4.94;58.70
70256;BME280;57669;52.624;-1.688;2022-12-01T11:00:33;102439.46;;;4.33;60.07
70256;BME280;57669;52.624;-1.688;2022-12-01T11:02:54;102441.91;;;4.33;60.76
70256;BME280;57669;52.624;-1.688;2022-12-01T11:05:23;102443.58;;;4.79;59.14
70256;BME280;57669;52.624;-1.688;2022-12-01T11:07:55;102441.38;;;5.33;58.52
70256;BME280;57669;52.624;-1.688;2022-12-01T11:10:16;102439.40;;;4.54;59.65
70256;BME280;57669;52.624;-1.688;2022-12-01T11:12:38;102439.62;;;4.48;58.96
70256;BME280;57669;52.624;-1.688;2022-12-01T11:15:04;102435.67;;;5.11;58.43
70256;BME280;57669;52.624;-1.688;2022-12-01T11:17:32;102429.61;;;5.06;58.33
70256;BME280;57669;52.624;-1.688;2022-12-01T11:19:54;102425.22;;;5.06;58.39
70256;BME280;57669;52.624;-1.688;2022-12-01T11:22:22;102416.00;;;4.95;58.83
70256;BME280;57669;52.624;-1.688;2022-12-01T11:27:15;102417.14;;;4.56;59.01
70256;BME280;57669;52.624;-1.688;2022-12-01T11:29:37;102414.19;;;5.00;58.84
70256;BME280;57669;52.624;-1.688;2022-12-01T11:32:13;102411.57;;;5.24;58.09
70256;BME280;57669;52.624;-1.688;2022-12-01T11:34:28;102405.83;;;5.98;56.51
70256;BME280;57669;52.624;-1.688;2022-12-01T11:36:54;102403.21;;;6.31;55.99
70256;BME280;57669;52.624;-1.688;2022-12-01T11:39:21;102404.49;;;5.59;56.61
70256;BME280;57669;52.624;-1.688;2022-12-01T11:41:42;102408.01;;;5.42;57.11
70256;BME280;57669;52.624;-1.688;2022-12-01T11:44:14;102406.17;;;4.40;59.12
70256;BME280;57669;52.624;-1.688;2022-12-01T11:46:34;102402.91;;;4.30;60.48
70256;BME280;57669;52.624;-1.688;2022-12-01T11:48:59;102405.52;;;5.58;57.31
70256;BME280;57669;52.624;-1.688;2022-12-01T11:51:28;102395.77;;;6.25;55.65
70256;BME280;57669;52.624;-1.688;2022-12-01T11:56:19;102393.98;;;5.81;55.73
70256;BME280;57669;52.624;-1.688;2022-12-01T11:58:41;102395.09;;;5.48;57.11
70256;BME280;57669;52.624;-1.688;2022-12-01T12:01:15;102390.90;;;5.97;55.81
70256;BME280;57669;52.624;-1.688;2022-12-01T12:03:37;102390.94;;;5.76;55.73
70256;BME280;57669;52.624;-1.688;2022-12-01T12:06:05;102392.26;;;4.73;57.74
70256;BME280;57669;52.624;-1.688;2022-12-01T12:08:31;102394.25;;;4.19;60.47
70256;BME280;57669;52.624;-1.688;2022-12-01T12:10:53;102392.77;;;5.01;58.65
70256;BME280;57669;52.624;-1.688;2022-12-01T12:13:30;102386.98;;;4.84;58.18
70256;BME280;57669;52.624;-1.688;2022-12-01T12:15:48;102382.87;;;5.85;56.10
70256;BME280;57669;52.624;-1.688;2022-12-01T12:18:16;102382.12;;;5.35;56.41
70256;BME280;57669;52.624;-1.688;2022-12-01T12:20:37;102385.24;;;5.58;55.62
70256;BME280;57669;52.624;-1.688;2022-12-01T12:23:05;102388.30;;;5.63;56.52
70256;BME280;57669;52.624;-1.688;2022-12-01T12:27:51;102386.16;;;6.68;53.91
70256;BME280;57669;52.624;-1.688;2022-12-01T12:30:19;102386.34;;;5.60;56.72
70256;BME280;57669;52.624;-1.688;2022-12-01T12:35:12;102388.88;;;5.33;57.36
70256;BME280;57669;52.624;-1.688;2022-12-01T12:37:36;102387.81;;;5.77;56.05
70256;BME280;57669;52.624;-1.688;2022-12-01T12:40:05;102390.95;;;4.91;58.90
70256;BME280;57669;52.624;-1.688;2022-12-01T12:42:26;102387.02;;;5.04;57.04
70256;BME280;57669;52.624;-1.688;2022-12-01T12:44:48;102387.20;;;4.66;57.89
70256;BME280;57669;52.624;-1.688;2022-12-01T12:47:22;102381.28;;;5.49;56.90
70256;BME280;57669;52.624;-1.688;2022-12-01T12:49:41;102381.29;;;5.43;57.45
70256;BME280;57669;52.624;-1.688;2022-12-01T12:52:03;102372.65;;;5.72;56.18
70256;BME280;57669;52.624;-1.688;2022-12-01T12:54:29;102369.42;;;5.54;55.51
70256;BME280;57669;52.624;-1.688;2022-12-01T12:56:56;102367.62;;;6.36;54.50